sensor_id;sensor_type;location;lat;lon;timestamp;pressure;altitude;pressure_sealevel;temperature
11926;BMP180;6022;48.768;18.608;2023-09-12T00:01:07;98258.69;;;18.54
11926;BMP180;6022;48.768;18.608;2023-09-12T00:03:35;98257.59;;;18.39
11926;BMP180;6022;48.768;18.608;2023-09-12T00:06:03;98254.47;;;18.28
11926;BMP180;6022;48.768;18.608;2023-09-12T00:08:31;98254.84;;;18.33
11926;BMP180;6022;48.768;18.608;2023-09-12T00:11:10;98255.03;;;18.39
11926;BMP180;6022;48.768;18.608;2023-09-12T00:13:39;98253.13;;;18.41
11926;BMP180;6022;48.768;18.608;2023-09-12T00:16:08;98248.50;;;18.45
11926;BMP180;6022;48.768;18.608;2023-09-12T00:18:39;98250.50;;;18.33
11926;BMP180;6022;48.768;18.608;2023-09-12T00:21:07;98243.63;;;18.17
11926;BMP180;6022;48.768;18.608;2023-09-12T00:23:34;98250.94;;;18.12
11926;BMP180;6022;48.768;18.608;2023-09-12T00:26:01;98243.28;;;18.02
11926;BMP180;6022;48.768;18.608;2023-09-12T00:28:28;98244.63;;;18.06
11926;BMP180;6022;48.768;18.608;2023-09-12T00:30:55;98240.56;;;18.04
11926;BMP180;6022;48.768;18.608;2023-09-12T00:33:22;98243.09;;;17.96
11926;BMP180;6022;48.768;18.608;2023-09-12T00:35:50;98247.09;;;17.81
11926;BMP180;6022;48.768;18.608;2023-09-12T00:38:17;98241.03;;;17.82
11926;BMP180;6022;48.768;18.608;2023-09-12T00:40:45;98245.34;;;17.81
11926;BMP180;6022;48.768;18.608;2023-09-12T00:43:12;98246.72;;;17.76
11926;BMP180;6022;48.768;18.608;2023-09-12T00:45:39;98244.97;;;17.77
11926;BMP180;6022;48.768;18.608;2023-09-12T00:48:08;98243.88;;;17.79
11926;BMP180;6022;48.768;18.608;2023-09-12T00:50:37;98249.97;;;17.78
11926;BMP180;6022;48.768;18.608;2023-09-12T00:53:06;98245.66;;;17.78
11926;BMP180;6022;48.768;18.608;2023-09-12T00:55:35;98249.91;;;17.87
11926;BMP180;6022;48.768;18.608;2023-09-12T00:58:03;98247.75;;;17.83
11926;BMP180;6022;48.768;18.608;2023-09-12T01:00:31;98242.75;;;17.64
11926;BMP180;6022;48.768;18.608;2023-09-12T01:02:58;98244.38;;;17.65
11926;BMP180;6022;48.768;18.608;2023-09-12T01:05:28;98250.59;;;17.63
11926;BMP180;6022;48.768;18.608;2023-09-12T01:07:56;98246.94;;;17.65
11926;BMP180;6022;48.768;18.608;2023-09-12T01:10:23;98247.66;;;17.58
11926;BMP180;6022;48.768;18.608;2023-09-12T01:12:52;98245.25;;;17.56
11926;BMP180;6022;48.768;18.608;2023-09-12T01:15:19;98242.03;;;17.54
11926;BMP180;6022;48.768;18.608;2023-09-12T01:17:47;98237.47;;;17.48
11926;BMP180;6022;48.768;18.608;2023-09-12T01:20:21;98240.16;;;17.47
11926;BMP180;6022;48.768;18.608;2023-09-12T01:23:41;98236.81;;;17.46
11926;BMP180;6022;48.768;18.608;2023-09-12T01:27:12;98239.06;;;17.49
11926;BMP180;6022;48.768;18.608;2023-09-12T01:29:42;98246.63;;;17.51
11926;BMP180;6022;48.768;18.608;2023-09-12T01:32:12;98232.63;;;17.45
11926;BMP180;6022;48.768;18.608;2023-09-12T01:34:39;98236.69;;;17.39
11926;BMP180;6022;48.768;18.608;2023-09-12T01:37:06;98238.59;;;17.37
11926;BMP180;6022;48.768;18.608;2023-09-12T01:39:33;98247.91;;;17.38
11926;BMP180;6022;48.768;18.608;2023-09-12T01:42:01;98246.19;;;17.29
11926;BMP180;6022;48.768;18.608;2023-09-12T01:44:31;98250.53;;;17.28
11926;BMP180;6022;48.768;18.608;2023-09-12T01:47:04;98242.31;;;17.25
11926;BMP180;6022;48.768;18.608;2023-09-12T01:49:33;98242.75;;;17.20
11926;BMP180;6022;48.768;18.608;2023-09-12T01:52:01;98246.78;;;17.23
11926;BMP180;6022;48.768;18.608;2023-09-12T01:54:29;98245.97;;;17.13
11926;BMP180;6022;48.768;18.608;2023-09-12T01:56:57;98244.47;;;17.10
11926;BMP180;6022;48.768;18.608;2023-09-12T01:59:26;98242.75;;;17.11
11926;BMP180;6022;48.768;18.608;2023-09-12T02:01:53;98248.16;;;17.08
11926;BMP180;6022;48.768;18.608;2023-09-12T02:04:20;98249.78;;;17.09
11926;BMP180;6022;48.768;18.608;2023-09-12T02:06:47;98249.78;;;17.09
11926;BMP180;6022;48.768;18.608;2023-09-12T02:09:15;98257.31;;;17.10
11926;BMP180;6022;48.768;18.608;2023-09-12T02:11:42;98257.47;;;17.09
11926;BMP180;6022;48.768;18.608;2023-09-12T02:14:09;98246.81;;;17.04
11926;BMP180;6022;48.768;18.608;2023-09-12T02:16:38;98247.09;;;17.01
11926;BMP180;6022;48.768;18.608;2023-09-12T02:19:09;98239.88;;;16.87
11926;BMP180;6022;48.768;18.608;2023-09-12T02:21:37;98245.91;;;16.86
11926;BMP180;6022;48.768;18.608;2023-09-12T02:24:05;98246.09;;;16.85
11926;BMP180;6022;48.768;18.608;2023-09-12T02:26:32;98241.88;;;16.84
11926;BMP180;6022;48.768;18.608;2023-09-12T02:29:04;98248.47;;;16.86
11926;BMP180;6022;48.768;18.608;2023-09-12T02:31:33;98246.88;;;16.85
11926;BMP180;6022;48.768;18.608;2023-09-12T02:34:00;98245.25;;;16.84
11926;BMP180;6022;48.768;18.608;2023-09-12T02:36:28;98246.66;;;16.69
11926;BMP180;6022;48.768;18.608;2023-09-12T02:38:55;98248.44;;;16.60
11926;BMP180;6022;48.768;18.608;2023-09-12T02:41:23;98239.94;;;16.59
11926;BMP180;6022;48.768;18.608;2023-09-12T02:43:50;98245.84;;;16.60
11926;BMP180;6022;48.768;18.608;2023-09-12T02:46:17;98240.59;;;16.61
11926;BMP180;6022;48.768;18.608;2023-09-12T02:48:44;98245.31;;;16.56
11926;BMP180;6022;48.768;18.608;2023-09-12T02:51:12;98251.53;;;16.54
11926;BMP180;6022;48.768;18.608;2023-09-12T02:53:39;98250.88;;;16.52
11926;BMP180;6022;48.768;18.608;2023-09-12T02:56:06;98248.84;;;16.55
11926;BMP180;6022;48.768;18.608;2023-09-12T02:58:33;98249.94;;;16.53
11926;BMP180;6022;48.768;18.608;2023-09-12T03:01:00;98244.41;;;16.48
11926;BMP180;6022;48.768;18.608;2023-09-12T03:03:30;98246.31;;;16.46
11926;BMP180;6022;48.768;18.608;2023-09-12T03:06:00;98245.50;;;16.45
11926;BMP180;6022;48.768;18.608;2023-09-12T03:08:27;98254.38;;;16.41
11926;BMP180;6022;48.768;18.608;2023-09-12T03:10:55;98256.69;;;16.44
11926;BMP180;6022;48.768;18.608;2023-09-12T03:13:26;98251.69;;;16.33
11926;BMP180;6022;48.768;18.608;2023-09-12T03:15:54;98251.44;;;16.27
11926;BMP180;6022;48.768;18.608;2023-09-12T03:18:22;98255.34;;;16.31
11926;BMP180;6022;48.768;18.608;2023-09-12T03:20:50;98254.78;;;16.37
11926;BMP180;6022;48.768;18.608;2023-09-12T03:23:18;98257.22;;;16.38
11926;BMP180;6022;48.768;18.608;2023-09-12T03:25:46;98253.59;;;16.31
11926;BMP180;6022;48.768;18.608;2023-09-12T03:28:13;98254.94;;;16.26
11926;BMP180;6022;48.768;18.608;2023-09-12T03:30:41;98256.81;;;16.24
11926;BMP180;6022;48.768;18.608;2023-09-12T03:33:08;98256.81;;;16.24
11926;BMP180;6022;48.768;18.608;2023-09-12T03:35:36;98252.66;;;16.23
11926;BMP180;6022;48.768;18.608;2023-09-12T03:38:04;98253.19;;;16.17
11926;BMP180;6022;48.768;18.608;2023-09-12T03:40:31;98258.56;;;16.14
11926;BMP180;6022;48.768;18.608;2023-09-12T03:42:59;98261.38;;;16.11
11926;BMP180;6022;48.768;18.608;2023-09-12T03:45:26;98253.44;;;16.14
11926;BMP180;6022;48.768;18.608;2023-09-12T03:47:53;98258.81;;;16.11
11926;BMP180;6022;48.768;18.608;2023-09-12T03:50:21;98260.56;;;16.11
11926;BMP180;6022;48.768;18.608;2023-09-12T03:52:48;98256.91;;;16.13
11926;BMP180;6022;48.768;18.608;2023-09-12T03:55:16;98261.78;;;16.16
11926;BMP180;6022;48.768;18.608;2023-09-12T03:57:43;98257.59;;;16.15
11926;BMP180;6022;48.768;18.608;2023-09-12T04:00:11;98264.59;;;16.13
11926;BMP180;6022;48.768;18.608;2023-09-12T04:02:39;98267.44;;;16.10
11926;BMP180;6022;48.768;18.608;2023-09-12T04:05:07;98261.66;;;16.08
11926;BMP180;6022;48.768;18.608;2023-09-12T04:07:34;98272.81;;;16.07
11926;BMP180;6022;48.768;18.608;2023-09-12T04:10:01;98263.00;;;16.03
11926;BMP180;6022;48.768;18.608;2023-09-12T04:12:28;98264.47;;;15.96
11926;BMP180;6022;48.768;18.608;2023-09-12T04:14:55;98270.00;;;16.01
11926;BMP180;6022;48.768;18.608;2023-09-12T04:17:23;98259.09;;;15.99
11926;BMP180;6022;48.768;18.608;2023-09-12T04:19:50;98260.69;;;16.00
11926;BMP180;6022;48.768;18.608;2023-09-12T04:22:17;98266.34;;;15.94
11926;BMP180;6022;48.768;18.608;2023-09-12T04:24:48;98260.31;;;15.95
11926;BMP180;6022;48.768;18.608;2023-09-12T04:27:15;98265.69;;;15.92
11926;BMP180;6022;48.768;18.608;2023-09-12T04:29:44;98261.91;;;15.96
11926;BMP180;6022;48.768;18.608;2023-09-12T04:32:30;98259.91;;;15.99
11926;BMP180;6022;48.768;18.608;2023-09-12T04:34:58;98270.53;;;16.04
11926;BMP180;6022;48.768;18.608;2023-09-12T04:37:25;98264.47;;;16.05
11926;BMP180;6022;48.768;18.608;2023-09-12T04:39:52;98268.25;;;16.11
11926;BMP180;6022;48.768;18.608;2023-09-12T04:42:19;98274.59;;;16.16
11926;BMP180;6022;48.768;18.608;2023-09-12T04:44:47;98267.69;;;16.17
11926;BMP180;6022;48.768;18.608;2023-09-12T04:47:14;98277.13;;;16.16
11926;BMP180;6022;48.768;18.608;2023-09-12T04:49:43;98268.25;;;16.11
11926;BMP180;6022;48.768;18.608;2023-09-12T04:52:11;98276.91;;;16.19
11926;BMP180;6022;48.768;18.608;2023-09-12T04:54:38;98273.13;;;16.23
11926;BMP180;6022;48.768;18.608;2023-09-12T04:57:07;98275.28;;;16.27
11926;BMP180;6022;48.768;18.608;2023-09-12T04:59:37;98282.53;;;16.41
11926;BMP180;6022;48.768;18.608;2023-09-12T05:02:06;98278.78;;;16.55
11926;BMP180;6022;48.768;18.608;2023-09-12T05:04:36;98280.63;;;16.71
11926;BMP180;6022;48.768;18.608;2023-09-12T05:07:03;98272.97;;;17.07
11926;BMP180;6022;48.768;18.608;2023-09-12T05:09:31;98279.25;;;17.58
11926;BMP180;6022;48.768;18.608;2023-09-12T05:12:32;98273.16;;;18.38
11926;BMP180;6022;48.768;18.608;2023-09-12T05:15:26;98291.03;;;19.07
11926;BMP180;6022;48.768;18.608;2023-09-12T05:17:54;98282.94;;;19.60
11926;BMP180;6022;48.768;18.608;2023-09-12T05:20:21;98277.44;;;20.04
11926;BMP180;6022;48.768;18.608;2023-09-12T05:22:48;98278.44;;;20.50
11926;BMP180;6022;48.768;18.608;2023-09-12T05:25:15;98277.78;;;20.88
11926;BMP180;6022;48.768;18.608;2023-09-12T05:27:42;98271.72;;;21.27
11926;BMP180;6022;48.768;18.608;2023-09-12T05:30:10;98267.84;;;21.69
11926;BMP180;6022;48.768;18.608;2023-09-12T05:32:37;98267.44;;;21.88
11926;BMP180;6022;48.768;18.608;2023-09-12T05:35:05;98271.56;;;22.27
11926;BMP180;6022;48.768;18.608;2023-09-12T05:37:47;98269.06;;;22.55
11926;BMP180;6022;48.768;18.608;2023-09-12T05:40:15;98280.63;;;22.67
11926;BMP180;6022;48.768;18.608;2023-09-12T05:42:42;98284.16;;;22.88
11926;BMP180;6022;48.768;18.608;2023-09-12T05:45:10;98273.94;;;23.23
11926;BMP180;6022;48.768;18.608;2023-09-12T05:47:37;98276.41;;;23.60
11926;BMP180;6022;48.768;18.608;2023-09-12T05:50:06;98278.66;;;23.98
11926;BMP180;6022;48.768;18.608;2023-09-12T05:52:34;98274.63;;;24.51
11926;BMP180;6022;48.768;18.608;2023-09-12T05:55:01;98275.97;;;24.68
11926;BMP180;6022;48.768;18.608;2023-09-12T05:57:31;98271.69;;;25.08
11926;BMP180;6022;48.768;18.608;2023-09-12T06:00:02;98269.72;;;25.50
11926;BMP180;6022;48.768;18.608;2023-09-12T06:02:32;98265.22;;;26.24
11926;BMP180;6022;48.768;18.608;2023-09-12T06:05:00;98270.25;;;26.64
11926;BMP180;6022;48.768;18.608;2023-09-12T06:07:28;98273.25;;;26.87
11926;BMP180;6022;48.768;18.608;2023-09-12T06:09:56;98280.78;;;27.34
11926;BMP180;6022;48.768;18.608;2023-09-12T06:12:23;98278.59;;;27.37
11926;BMP180;6022;48.768;18.608;2023-09-12T06:14:51;98277.69;;;27.69
11926;BMP180;6022;48.768;18.608;2023-09-12T06:17:21;98278.78;;;27.36
11926;BMP180;6022;48.768;18.608;2023-09-12T06:19:49;98281.38;;;27.36
11926;BMP180;6022;48.768;18.608;2023-09-12T06:22:17;98270.34;;;28.03
11926;BMP180;6022;48.768;18.608;2023-09-12T06:24:44;98268.16;;;27.43
11926;BMP180;6022;48.768;18.608;2023-09-12T06:27:11;98276.16;;;28.05
11926;BMP180;6022;48.768;18.608;2023-09-12T06:29:47;98270.72;;;28.00
11926;BMP180;6022;48.768;18.608;2023-09-12T06:32:16;98272.25;;;28.44
11926;BMP180;6022;48.768;18.608;2023-09-12T06:34:43;98269.31;;;28.65
11926;BMP180;6022;48.768;18.608;2023-09-12T06:37:12;98268.69;;;28.39
11926;BMP180;6022;48.768;18.608;2023-09-12T06:39:39;98269.13;;;27.55
11926;BMP180;6022;48.768;18.608;2023-09-12T06:42:07;98267.34;;;27.49
11926;BMP180;6022;48.768;18.608;2023-09-12T06:44:34;98266.22;;;28.19
11926;BMP180;6022;48.768;18.608;2023-09-12T06:47:21;98262.72;;;28.01
11926;BMP180;6022;48.768;18.608;2023-09-12T06:49:48;98266.13;;;27.95
11926;BMP180;6022;48.768;18.608;2023-09-12T06:52:21;98271.34;;;28.63
11926;BMP180;6022;48.768;18.608;2023-09-12T06:54:49;98270.94;;;28.66
11926;BMP180;6022;48.768;18.608;2023-09-12T06:57:17;98279.28;;;28.13
11926;BMP180;6022;48.768;18.608;2023-09-12T06:59:44;98273.97;;;28.32
11926;BMP180;6022;48.768;18.608;2023-09-12T07:02:11;98268.94;;;28.86
11926;BMP180;6022;48.768;18.608;2023-09-12T07:04:42;98271.69;;;29.15
11926;BMP180;6022;48.768;18.608;2023-09-12T07:07:09;98270.94;;;28.66
11926;BMP180;6022;48.768;18.608;2023-09-12T07:09:36;98266.59;;;28.23
11926;BMP180;6022;48.768;18.608;2023-09-12T07:12:04;98273.41;;;28.54
11926;BMP180;6022;48.768;18.608;2023-09-12T07:14:32;98261.91;;;29.46
11926;BMP180;6022;48.768;18.608;2023-09-12T07:16:59;98270.78;;;29.80
11926;BMP180;6022;48.768;18.608;2023-09-12T07:19:29;98260.44;;;29.85
11926;BMP180;6022;48.768;18.608;2023-09-12T07:21:56;98257.63;;;28.91
11926;BMP180;6022;48.768;18.608;2023-09-12T07:24:27;98260.22;;;29.51
11926;BMP180;6022;48.768;18.608;2023-09-12T07:26:54;98258.63;;;29.68
11926;BMP180;6022;48.768;18.608;2023-09-12T07:29:22;98264.22;;;29.89
11926;BMP180;6022;48.768;18.608;2023-09-12T07:31:53;98278.28;;;30.35
11926;BMP180;6022;48.768;18.608;2023-09-12T07:34:21;98259.19;;;30.17
11926;BMP180;6022;48.768;18.608;2023-09-12T07:36:48;98267.63;;;30.59
11926;BMP180;6022;48.768;18.608;2023-09-12T07:39:16;98264.38;;;30.98
11926;BMP180;6022;48.768;18.608;2023-09-12T07:41:43;98262.66;;;31.37
11926;BMP180;6022;48.768;18.608;2023-09-12T07:44:10;98258.53;;;31.92
11926;BMP180;6022;48.768;18.608;2023-09-12T07:46:43;98267.81;;;32.10
11926;BMP180;6022;48.768;18.608;2023-09-12T07:49:10;98265.34;;;31.54
11926;BMP180;6022;48.768;18.608;2023-09-12T07:51:38;98258.63;;;31.46
11926;BMP180;6022;48.768;18.608;2023-09-12T07:54:11;98265.53;;;31.75
11926;BMP180;6022;48.768;18.608;2023-09-12T07:56:38;98259.69;;;31.84
11926;BMP180;6022;48.768;18.608;2023-09-12T07:59:06;98261.16;;;31.80
11926;BMP180;6022;48.768;18.608;2023-09-12T08:01:35;98257.03;;;31.45
11926;BMP180;6022;48.768;18.608;2023-09-12T08:04:03;98257.03;;;31.45
11926;BMP180;6022;48.768;18.608;2023-09-12T08:06:33;98250.28;;;32.60
11926;BMP180;6022;48.768;18.608;2023-09-12T08:09:20;98250.69;;;33.59
11926;BMP180;6022;48.768;18.608;2023-09-12T08:11:47;98250.09;;;32.82
11926;BMP180;6022;48.768;18.608;2023-09-12T08:14:14;98249.72;;;32.58
11926;BMP180;6022;48.768;18.608;2023-09-12T08:16:41;98245.28;;;31.48
11926;BMP180;6022;48.768;18.608;2023-09-12T08:19:11;98249.31;;;31.05
11926;BMP180;6022;48.768;18.608;2023-09-12T08:21:43;98251.41;;;31.64
11926;BMP180;6022;48.768;18.608;2023-09-12T08:24:10;98254.66;;;31.44
11926;BMP180;6022;48.768;18.608;2023-09-12T08:26:37;98249.16;;;32.12
11926;BMP180;6022;48.768;18.608;2023-09-12T08:29:04;98242.50;;;32.21
11926;BMP180;6022;48.768;18.608;2023-09-12T08:31:32;98248.31;;;32.67
11926;BMP180;6022;48.768;18.608;2023-09-12T08:33:59;98253.06;;;32.70
11926;BMP180;6022;48.768;18.608;2023-09-12T08:36:27;98250.22;;;33.04
11926;BMP180;6022;48.768;18.608;2023-09-12T08:38:54;98250.91;;;32.99
11926;BMP180;6022;48.768;18.608;2023-09-12T08:41:21;98247.09;;;33.87
11926;BMP180;6022;48.768;18.608;2023-09-12T08:43:49;98256.91;;;34.48
11926;BMP180;6022;48.768;18.608;2023-09-12T08:46:17;98259.06;;;34.82
11926;BMP180;6022;48.768;18.608;2023-09-12T08:48:46;98255.25;;;34.69
11926;BMP180;6022;48.768;18.608;2023-09-12T08:51:14;98247.00;;;34.03
11926;BMP180;6022;48.768;18.608;2023-09-12T08:53:41;98247.63;;;33.67
11926;BMP180;6022;48.768;18.608;2023-09-12T08:56:10;98254.19;;;33.06
11926;BMP180;6022;48.768;18.608;2023-09-12T08:58:38;98246.63;;;33.31
11926;BMP180;6022;48.768;18.608;2023-09-12T09:01:07;98250.34;;;34.25
11926;BMP180;6022;48.768;18.608;2023-09-12T09:03:42;98248.63;;;34.09
11926;BMP180;6022;48.768;18.608;2023-09-12T09:06:12;98251.91;;;33.73
11926;BMP180;6022;48.768;18.608;2023-09-12T09:08:42;98246.84;;;34.14
11926;BMP180;6022;48.768;18.608;2023-09-12T09:11:10;98245.31;;;33.92
11926;BMP180;6022;48.768;18.608;2023-09-12T09:13:37;98246.88;;;34.45
11926;BMP180;6022;48.768;18.608;2023-09-12T09:16:19;98254.69;;;35.44
11926;BMP180;6022;48.768;18.608;2023-09-12T09:19:03;98251.97;;;35.89
11926;BMP180;6022;48.768;18.608;2023-09-12T09:21:33;98249.31;;;35.89
11926;BMP180;6022;48.768;18.608;2023-09-12T09:24:07;98247.81;;;36.23
11926;BMP180;6022;48.768;18.608;2023-09-12T09:26:50;98244.13;;;36.49
11926;BMP180;6022;48.768;18.608;2023-09-12T09:29:21;98245.97;;;36.28
11926;BMP180;6022;48.768;18.608;2023-09-12T09:31:50;98238.16;;;35.68
11926;BMP180;6022;48.768;18.608;2023-09-12T09:34:20;98237.97;;;35.99
11926;BMP180;6022;48.768;18.608;2023-09-12T09:36:51;98236.63;;;35.91
11926;BMP180;6022;48.768;18.608;2023-09-12T09:39:27;98241.94;;;36.06
11926;BMP180;6022;48.768;18.608;2023-09-12T09:41:58;98242.84;;;35.51
11926;BMP180;6022;48.768;18.608;2023-09-12T09:44:29;98233.78;;;35.32
11926;BMP180;6022;48.768;18.608;2023-09-12T09:47:01;98236.94;;;35.29
11926;BMP180;6022;48.768;18.608;2023-09-12T09:49:34;98243.53;;;35.32
11926;BMP180;6022;48.768;18.608;2023-09-12T09:52:04;98236.44;;;35.37
11926;BMP180;6022;48.768;18.608;2023-09-12T09:54:35;98236.50;;;35.47
11926;BMP180;6022;48.768;18.608;2023-09-12T09:57:06;98225.44;;;35.55
11926;BMP180;6022;48.768;18.608;2023-09-12T09:59:34;98232.28;;;35.51
11926;BMP180;6022;48.768;18.608;2023-09-12T10:02:01;98227.53;;;35.58
11926;BMP180;6022;48.768;18.608;2023-09-12T10:04:32;98227.69;;;35.27
11926;BMP180;6022;48.768;18.608;2023-09-12T10:07:12;98230.19;;;35.53
11926;BMP180;6022;48.768;18.608;2023-09-12T10:09:41;98233.91;;;35.67
11926;BMP180;6022;48.768;18.608;2023-09-12T10:12:11;98232.53;;;35.54
11926;BMP180;6022;48.768;18.608;2023-09-12T10:14:40;98225.53;;;35.80
11926;BMP180;6022;48.768;18.608;2023-09-12T10:17:10;98219.75;;;35.92
11926;BMP180;6022;48.768;18.608;2023-09-12T10:19:56;98222.84;;;35.70
11926;BMP180;6022;48.768;18.608;2023-09-12T10:22:34;98220.81;;;35.96
11926;BMP180;6022;48.768;18.608;2023-09-12T10:25:02;98210.75;;;35.93
11926;BMP180;6022;48.768;18.608;2023-09-12T10:27:31;98211.56;;;36.04
11926;BMP180;6022;48.768;18.608;2023-09-12T10:29:59;98207.66;;;36.21
11926;BMP180;6022;48.768;18.608;2023-09-12T10:32:30;98210.84;;;36.43
11926;BMP180;6022;48.768;18.608;2023-09-12T10:34:59;98198.38;;;36.24
11926;BMP180;6022;48.768;18.608;2023-09-12T10:37:29;98197.59;;;36.38
11926;BMP180;6022;48.768;18.608;2023-09-12T10:40:01;98200.22;;;36.13
11926;BMP180;6022;48.768;18.608;2023-09-12T10:42:32;98195.75;;;36.24
11926;BMP180;6022;48.768;18.608;2023-09-12T10:45:02;98197.63;;;36.28
11926;BMP180;6022;48.768;18.608;2023-09-12T10:47:31;98200.75;;;36.10
11926;BMP180;6022;48.768;18.608;2023-09-12T10:50:02;98198.13;;;36.35
11926;BMP180;6022;48.768;18.608;2023-09-12T10:52:32;98210.00;;;36.42
11926;BMP180;6022;48.768;18.608;2023-09-12T10:55:06;98186.25;;;36.52
11926;BMP180;6022;48.768;18.608;2023-09-12T10:58:03;98193.91;;;36.44
11926;BMP180;6022;48.768;18.608;2023-09-12T11:00:31;98193.88;;;36.54
11926;BMP180;6022;48.768;18.608;2023-09-12T11:03:37;98200.53;;;36.66
11926;BMP180;6022;48.768;18.608;2023-09-12T11:06:30;98200.78;;;36.74
11926;BMP180;6022;48.768;18.608;2023-09-12T11:09:33;98187.50;;;36.89
11926;BMP180;6022;48.768;18.608;2023-09-12T11:12:35;98188.59;;;36.78
11926;BMP180;6022;48.768;18.608;2023-09-12T11:15:25;98179.34;;;36.76
11926;BMP180;6022;48.768;18.608;2023-09-12T11:18:04;98184.13;;;36.34
11926;BMP180;6022;48.768;18.608;2023-09-12T11:21:03;98183.34;;;36.39
11926;BMP180;6022;48.768;18.608;2023-09-12T11:23:30;98189.16;;;36.66
11926;BMP180;6022;48.768;18.608;2023-09-12T11:26:06;98175.91;;;36.61
11926;BMP180;6022;48.768;18.608;2023-09-12T11:28:42;98191.25;;;36.68
11926;BMP180;6022;48.768;18.608;2023-09-12T11:31:26;98179.06;;;36.82
11926;BMP180;6022;48.768;18.608;2023-09-12T11:34:02;98168.72;;;36.96
11926;BMP180;6022;48.768;18.608;2023-09-12T11:36:29;98177.50;;;36.71
11926;BMP180;6022;48.768;18.608;2023-09-12T11:39:28;98160.84;;;36.66
11926;BMP180;6022;48.768;18.608;2023-09-12T11:41:57;98169.03;;;36.65
11926;BMP180;6022;48.768;18.608;2023-09-12T11:44:26;98166.13;;;36.66
11926;BMP180;6022;48.768;18.608;2023-09-12T11:47:00;98166.41;;;36.40
11926;BMP180;6022;48.768;18.608;2023-09-12T11:49:41;98157.94;;;36.33
11926;BMP180;6022;48.768;18.608;2023-09-12T11:52:15;98164.31;;;36.17
11926;BMP180;6022;48.768;18.608;2023-09-12T11:54:48;98164.31;;;36.17
11926;BMP180;6022;48.768;18.608;2023-09-12T11:57:15;98163.78;;;36.30
11926;BMP180;6022;48.768;18.608;2023-09-12T11:59:46;98160.59;;;36.33
11926;BMP180;6022;48.768;18.608;2023-09-12T12:02:17;98155.59;;;36.46
11926;BMP180;6022;48.768;18.608;2023-09-12T12:04:46;98168.00;;;36.51
11926;BMP180;6022;48.768;18.608;2023-09-12T12:07:13;98161.91;;;36.60
11926;BMP180;6022;48.768;18.608;2023-09-12T12:09:41;98157.94;;;36.63
11926;BMP180;6022;48.768;18.608;2023-09-12T12:12:13;98164.81;;;36.73
11926;BMP180;6022;48.768;18.608;2023-09-12T12:14:41;98157.38;;;36.70
11926;BMP180;6022;48.768;18.608;2023-09-12T12:17:10;98158.47;;;36.69
11926;BMP180;6022;48.768;18.608;2023-09-12T12:19:39;98142.56;;;36.79
11926;BMP180;6022;48.768;18.608;2023-09-12T12:22:07;98156.88;;;36.68
11926;BMP180;6022;48.768;18.608;2023-09-12T12:24:46;98146.84;;;36.66
11926;BMP180;6022;48.768;18.608;2023-09-12T12:27:18;98138.63;;;36.72
11926;BMP180;6022;48.768;18.608;2023-09-12T12:29:45;98139.66;;;36.61
11926;BMP180;6022;48.768;18.608;2023-09-12T12:32:16;98139.16;;;36.64
11926;BMP180;6022;48.768;18.608;2023-09-12T12:34:48;98133.63;;;36.51
11926;BMP180;6022;48.768;18.608;2023-09-12T12:37:37;98138.13;;;36.40
11926;BMP180;6022;48.768;18.608;2023-09-12T12:40:05;98131.25;;;36.39
11926;BMP180;6022;48.768;18.608;2023-09-12T12:42:35;98136.28;;;36.21
11926;BMP180;6022;48.768;18.608;2023-09-12T12:45:20;98132.88;;;36.21
11926;BMP180;6022;48.768;18.608;2023-09-12T12:47:57;98135.25;;;36.17
11926;BMP180;6022;48.768;18.608;2023-09-12T12:50:25;98132.84;;;36.11
11926;BMP180;6022;48.768;18.608;2023-09-12T12:52:52;98137.59;;;36.09
11926;BMP180;6022;48.768;18.608;2023-09-12T12:55:21;98134.97;;;35.94
11926;BMP180;6022;48.768;18.608;2023-09-12T12:57:52;98126.78;;;36.05
11926;BMP180;6022;48.768;18.608;2023-09-12T13:00:19;98133.91;;;36.10
11926;BMP180;6022;48.768;18.608;2023-09-12T13:02:46;98136.53;;;36.10
11926;BMP180;6022;48.768;18.608;2023-09-12T13:05:39;98129.66;;;35.99
11926;BMP180;6022;48.768;18.608;2023-09-12T13:08:08;98130.97;;;35.77
11926;BMP180;6022;48.768;18.608;2023-09-12T13:10:37;98130.47;;;35.80
11926;BMP180;6022;48.768;18.608;2023-09-12T13:13:04;98140.16;;;35.69
11926;BMP180;6022;48.768;18.608;2023-09-12T13:15:32;98124.34;;;35.64
11926;BMP180;6022;48.768;18.608;2023-09-12T13:17:59;98121.16;;;35.57
11926;BMP180;6022;48.768;18.608;2023-09-12T13:20:26;98119.81;;;35.50
11926;BMP180;6022;48.768;18.608;2023-09-12T13:22:53;98124.81;;;35.37
11926;BMP180;6022;48.768;18.608;2023-09-12T13:25:20;98122.84;;;35.12
11926;BMP180;6022;48.768;18.608;2023-09-12T13:27:50;98117.22;;;34.94
11926;BMP180;6022;48.768;18.608;2023-09-12T13:30:22;98123.69;;;34.67
11926;BMP180;6022;48.768;18.608;2023-09-12T13:32:49;98126.19;;;34.47
11926;BMP180;6022;48.768;18.608;2023-09-12T13:35:17;98129.91;;;34.51
11926;BMP180;6022;48.768;18.608;2023-09-12T13:37:44;98122.00;;;34.51
11926;BMP180;6022;48.768;18.608;2023-09-12T13:40:12;98127.44;;;34.40
11926;BMP180;6022;48.768;18.608;2023-09-12T13:42:39;98111.50;;;34.20
11926;BMP180;6022;48.768;18.608;2023-09-12T13:45:07;98116.41;;;34.12
11926;BMP180;6022;48.768;18.608;2023-09-12T13:47:34;98111.63;;;34.04
11926;BMP180;6022;48.768;18.608;2023-09-12T13:50:02;98106.59;;;33.97
11926;BMP180;6022;48.768;18.608;2023-09-12T13:52:29;98107.03;;;33.90
11926;BMP180;6022;48.768;18.608;2023-09-12T13:54:57;98103.75;;;33.78
11926;BMP180;6022;48.768;18.608;2023-09-12T13:57:25;98113.44;;;33.72
11926;BMP180;6022;48.768;18.608;2023-09-12T13:59:52;98118.59;;;33.62
11926;BMP180;6022;48.768;18.608;2023-09-12T14:02:22;98111.41;;;33.53
11926;BMP180;6022;48.768;18.608;2023-09-12T14:04:53;98110.63;;;33.53
11926;BMP180;6022;48.768;18.608;2023-09-12T14:07:38;98110.88;;;33.51
11926;BMP180;6022;48.768;18.608;2023-09-12T14:10:07;98115.28;;;33.46
11926;BMP180;6022;48.768;18.608;2023-09-12T14:12:37;98103.59;;;33.37
11926;BMP180;6022;48.768;18.608;2023-09-12T14:15:05;98100.78;;;33.22
11926;BMP180;6022;48.768;18.608;2023-09-12T14:17:35;98109.13;;;33.14
11926;BMP180;6022;48.768;18.608;2023-09-12T14:20:04;98101.22;;;33.14
11926;BMP180;6022;48.768;18.608;2023-09-12T14:22:33;98103.63;;;33.16
11926;BMP180;6022;48.768;18.608;2023-09-12T14:25:01;98093.78;;;33.06
11926;BMP180;6022;48.768;18.608;2023-09-12T14:27:29;98112.81;;;33.13